sensor_id;sensor_type;location;lat;lon;timestamp;P1;durP1;ratioP1;P2;durP2;ratioP2
3085;SDS011;52812;48.960;9.108;2023-03-01T00:00:39;22.30;;;10.90;;
3085;SDS011;52812;48.960;9.108;2023-03-01T00:03:05;24.55;;;10.02;;
3085;SDS011;52812;48.960;9.108;2023-03-01T00:05:31;25.73;;;11.03;;
3085;SDS011;52812;48.960;9.108;2023-03-01T00:07:57;18.90;;;9.83;;
3085;SDS011;52812;48.960;9.108;2023-03-01T00:10:22;19.40;;;9.97;;
3085;SDS011;52812;48.960;9.108;2023-03-01T00:12:48;18.17;;;9.80;;
3085;SDS011;52812;48.960;9.108;2023-03-01T00:15:13;19.97;;;9.57;;
3085;SDS011;52812;48.960;9.108;2023-03-01T00:17:39;17.97;;;9.33;;
3085;SDS011;52812;48.960;9.108;2023-03-01T00:20:05;21.57;;;10.97;;
3085;SDS011;52812;48.960;9.108;2023-03-01T00:22:35;23.13;;;10.95;;
3085;SDS011;52812;48.960;9.108;2023-03-01T00:25:01;23.00;;;9.83;;
3085;SDS011;52812;48.960;9.108;2023-03-01T00:27:26;19.50;;;10.10;;
3085;SDS011;52812;48.960;9.108;2023-03-01T00:29:52;23.77;;;10.33;;
3085;SDS011;52812;48.960;9.108;2023-03-01T00:32:18;20.10;;;10.10;;
3085;SDS011;52812;48.960;9.108;2023-03-01T00:34:43;21.27;;;10.57;;
3085;SDS011;52812;48.960;9.108;2023-03-01T00:37:19;20.42;;;10.05;;
3085;SDS011;52812;48.960;9.108;2023-03-01T00:39:46;23.83;;;10.27;;
3085;SDS011;52812;48.960;9.108;2023-03-01T00:42:11;24.20;;;11.68;;
3085;SDS011;52812;48.960;9.108;2023-03-01T00:44:37;20.93;;;10.40;;
3085;SDS011;52812;48.960;9.108;2023-03-01T00:47:02;17.83;;;10.50;;
3085;SDS011;52812;48.960;9.108;2023-03-01T00:49:28;22.57;;;11.30;;
3085;SDS011;52812;48.960;9.108;2023-03-01T00:51:54;21.53;;;10.40;;
3085;SDS011;52812;48.960;9.108;2023-03-01T00:54:19;22.60;;;10.80;;
3085;SDS011;52812;48.960;9.108;2023-03-01T00:56:45;20.23;;;10.83;;
3085;SDS011;52812;48.960;9.108;2023-03-01T00:59:10;21.33;;;9.80;;
3085;SDS011;52812;48.960;9.108;2023-03-01T01:01:36;21.17;;;10.07;;
3085;SDS011;52812;48.960;9.108;2023-03-01T01:04:03;23.10;;;11.63;;
3085;SDS011;52812;48.960;9.108;2023-03-01T01:06:32;23.48;;;10.38;;
3085;SDS011;52812;48.960;9.108;2023-03-01T01:09:00;22.52;;;10.45;;
3085;SDS011;52812;48.960;9.108;2023-03-01T01:11:27;22.50;;;11.45;;
3085;SDS011;52812;48.960;9.108;2023-03-01T01:13:54;23.27;;;11.02;;
3085;SDS011;52812;48.960;9.108;2023-03-01T01:16:21;25.70;;;12.00;;
3085;SDS011;52812;48.960;9.108;2023-03-01T01:18:48;20.23;;;10.13;;
3085;SDS011;52812;48.960;9.108;2023-03-01T01:21:15;20.60;;;10.27;;
3085;SDS011;52812;48.960;9.108;2023-03-01T01:23:42;21.65;;;10.38;;
3085;SDS011;52812;48.960;9.108;2023-03-01T01:26:42;25.05;;;11.20;;
3085;SDS011;52812;48.960;9.108;2023-03-01T01:29:01;20.98;;;9.77;;
3085;SDS011;52812;48.960;9.108;2023-03-01T01:31:28;21.50;;;10.10;;
3085;SDS011;52812;48.960;9.108;2023-03-01T01:33:54;21.20;;;10.30;;
3085;SDS011;52812;48.960;9.108;2023-03-01T01:36:21;20.27;;;10.93;;
3085;SDS011;52812;48.960;9.108;2023-03-01T01:38:46;20.80;;;10.53;;
3085;SDS011;52812;48.960;9.108;2023-03-01T01:41:12;23.43;;;11.57;;
3085;SDS011;52812;48.960;9.108;2023-03-01T01:43:40;22.65;;;10.60;;
3085;SDS011;52812;48.960;9.108;2023-03-01T01:48:46;21.55;;;10.50;;
3085;SDS011;52812;48.960;9.108;2023-03-01T01:51:18;23.67;;;11.90;;
3085;SDS011;52812;48.960;9.108;2023-03-01T01:53:49;20.95;;;10.60;;
3085;SDS011;52812;48.960;9.108;2023-03-01T01:56:17;21.25;;;10.63;;
3085;SDS011;52812;48.960;9.108;2023-03-01T01:58:44;27.80;;;10.88;;
3085;SDS011;52812;48.960;9.108;2023-03-01T02:01:12;18.05;;;10.20;;
3085;SDS011;52812;48.960;9.108;2023-03-01T02:03:38;22.60;;;11.00;;
3085;SDS011;52812;48.960;9.108;2023-03-01T02:08:39;18.55;;;9.70;;
3085;SDS011;52812;48.960;9.108;2023-03-01T02:11:07;20.75;;;10.35;;
3085;SDS011;52812;48.960;9.108;2023-03-01T02:13:33;22.85;;;11.13;;
3085;SDS011;52812;48.960;9.108;2023-03-01T02:16:02;23.25;;;9.95;;
3085;SDS011;52812;48.960;9.108;2023-03-01T02:18:29;26.02;;;11.02;;
3085;SDS011;52812;48.960;9.108;2023-03-01T02:23:42;23.92;;;11.07;;
3085;SDS011;52812;48.960;9.108;2023-03-01T02:26:13;23.70;;;10.87;;
3085;SDS011;52812;48.960;9.108;2023-03-01T02:28:45;22.20;;;10.25;;
3085;SDS011;52812;48.960;9.108;2023-03-01T02:31:14;21.93;;;10.97;;
3085;SDS011;52812;48.960;9.108;2023-03-01T02:34:01;25.63;;;10.73;;
3085;SDS011;52812;48.960;9.108;2023-03-01T02:36:30;22.65;;;11.30;;
3085;SDS011;52812;48.960;9.108;2023-03-01T02:39:00;26.83;;;11.98;;
3085;SDS011;52812;48.960;9.108;2023-03-01T02:41:30;21.63;;;10.70;;
3085;SDS011;52812;48.960;9.108;2023-03-01T02:43:57;21.00;;;10.93;;
3085;SDS011;52812;48.960;9.108;2023-03-01T02:46:24;24.67;;;12.60;;
3085;SDS011;52812;48.960;9.108;2023-03-01T02:48:51;26.70;;;11.48;;
3085;SDS011;52812;48.960;9.108;2023-03-01T02:51:22;27.63;;;10.98;;
3085;SDS011;52812;48.960;9.108;2023-03-01T02:56:38;23.70;;;11.57;;
3085;SDS011;52812;48.960;9.108;2023-03-01T02:59:04;20.60;;;11.57;;
3085;SDS011;52812;48.960;9.108;2023-03-01T03:01:30;23.60;;;11.40;;
3085;SDS011;52812;48.960;9.108;2023-03-01T03:04:03;23.25;;;11.57;;
3085;SDS011;52812;48.960;9.108;2023-03-01T03:06:32;24.65;;;11.30;;
3085;SDS011;52812;48.960;9.108;2023-03-01T03:08:58;21.90;;;10.87;;
3085;SDS011;52812;48.960;9.108;2023-03-01T03:11:24;23.15;;;10.35;;
3085;SDS011;52812;48.960;9.108;2023-03-01T03:13:51;21.90;;;10.15;;
3085;SDS011;52812;48.960;9.108;2023-03-01T03:16:17;28.55;;;11.57;;
3085;SDS011;52812;48.960;9.108;2023-03-01T03:18:43;27.13;;;11.98;;
3085;SDS011;52812;48.960;9.108;2023-03-01T03:21:09;17.63;;;10.70;;
3085;SDS011;52812;48.960;9.108;2023-03-01T03:23:36;20.77;;;10.63;;
3085;SDS011;52812;48.960;9.108;2023-03-01T03:26:02;20.13;;;10.20;;
3085;SDS011;52812;48.960;9.108;2023-03-01T03:28:29;22.48;;;11.35;;
3085;SDS011;52812;48.960;9.108;2023-03-01T03:30:55;23.73;;;11.47;;
3085;SDS011;52812;48.960;9.108;2023-03-01T03:33:21;24.55;;;12.38;;
3085;SDS011;52812;48.960;9.108;2023-03-01T03:35:47;25.83;;;11.67;;
3085;SDS011;52812;48.960;9.108;2023-03-01T03:38:14;21.80;;;11.30;;
3085;SDS011;52812;48.960;9.108;2023-03-01T03:40:46;24.47;;;11.53;;
3085;SDS011;52812;48.960;9.108;2023-03-01T03:43:14;21.58;;;11.07;;
3085;SDS011;52812;48.960;9.108;2023-03-01T03:45:41;25.40;;;11.40;;
3085;SDS011;52812;48.960;9.108;2023-03-01T03:48:09;21.90;;;11.00;;
3085;SDS011;52812;48.960;9.108;2023-03-01T03:50:35;24.90;;;11.10;;
3085;SDS011;52812;48.960;9.108;2023-03-01T03:53:03;25.43;;;11.53;;
3085;SDS011;52812;48.960;9.108;2023-03-01T03:55:31;28.48;;;12.27;;
3085;SDS011;52812;48.960;9.108;2023-03-01T03:57:58;18.70;;;10.60;;
3085;SDS011;52812;48.960;9.108;2023-03-01T04:00:31;21.73;;;10.82;;
3085;SDS011;52812;48.960;9.108;2023-03-01T04:02:58;23.85;;;11.50;;
3085;SDS011;52812;48.960;9.108;2023-03-01T04:05:23;27.90;;;12.00;;
3085;SDS011;52812;48.960;9.108;2023-03-01T04:07:49;20.80;;;10.87;;
3085;SDS011;52812;48.960;9.108;2023-03-01T04:10:26;24.52;;;11.13;;
3085;SDS011;52812;48.960;9.108;2023-03-01T04:12:52;26.13;;;12.57;;
3085;SDS011;52812;48.960;9.108;2023-03-01T04:15:18;26.40;;;11.17;;
3085;SDS011;52812;48.960;9.108;2023-03-01T04:17:45;22.23;;;11.57;;
3085;SDS011;52812;48.960;9.108;2023-03-01T04:20:18;22.90;;;11.73;;
3085;SDS011;52812;48.960;9.108;2023-03-01T04:22:52;23.20;;;10.80;;
3085;SDS011;52812;48.960;9.108;2023-03-01T04:25:35;24.40;;;11.27;;
3085;SDS011;52812;48.960;9.108;2023-03-01T04:28:09;21.58;;;11.27;;
3085;SDS011;52812;48.960;9.108;2023-03-01T04:30:36;27.17;;;11.73;;
3085;SDS011;52812;48.960;9.108;2023-03-01T04:33:03;23.55;;;10.95;;
3085;SDS011;52812;48.960;9.108;2023-03-01T04:35:34;26.13;;;11.20;;
3085;SDS011;52812;48.960;9.108;2023-03-01T04:38:00;24.13;;;11.63;;
3085;SDS011;52812;48.960;9.108;2023-03-01T04:40:26;23.70;;;12.13;;
3085;SDS011;52812;48.960;9.108;2023-03-01T04:42:52;22.77;;;11.53;;
3085;SDS011;52812;48.960;9.108;2023-03-01T04:45:17;29.30;;;10.60;;
3085;SDS011;52812;48.960;9.108;2023-03-01T04:47:43;28.30;;;11.70;;
3085;SDS011;52812;48.960;9.108;2023-03-01T04:50:11;22.30;;;10.65;;
3085;SDS011;52812;48.960;9.108;2023-03-01T04:52:38;22.83;;;11.07;;
3085;SDS011;52812;48.960;9.108;2023-03-01T04:55:04;24.20;;;11.37;;
3085;SDS011;52812;48.960;9.108;2023-03-01T04:57:30;26.08;;;11.98;;
3085;SDS011;52812;48.960;9.108;2023-03-01T04:59:56;24.10;;;11.30;;
3085;SDS011;52812;48.960;9.108;2023-03-01T05:02:21;24.30;;;11.90;;
3085;SDS011;52812;48.960;9.108;2023-03-01T05:04:47;21.47;;;11.87;;
3085;SDS011;52812;48.960;9.108;2023-03-01T05:07:12;21.90;;;11.50;;
3085;SDS011;52812;48.960;9.108;2023-03-01T05:09:44;29.20;;;13.10;;
3085;SDS011;52812;48.960;9.108;2023-03-01T05:12:10;27.48;;;13.18;;
3085;SDS011;52812;48.960;9.108;2023-03-01T05:14:36;28.43;;;12.53;;
3085;SDS011;52812;48.960;9.108;2023-03-01T05:17:03;25.55;;;11.60;;
3085;SDS011;52812;48.960;9.108;2023-03-01T05:19:29;26.13;;;10.97;;
3085;SDS011;52812;48.960;9.108;2023-03-01T05:21:56;23.50;;;11.90;;
3085;SDS011;52812;48.960;9.108;2023-03-01T05:24:32;28.95;;;11.80;;
3085;SDS011;52812;48.960;9.108;2023-03-01T05:26:59;26.92;;;12.35;;
3085;SDS011;52812;48.960;9.108;2023-03-01T05:29:26;28.50;;;12.95;;
3085;SDS011;52812;48.960;9.108;2023-03-01T05:31:57;25.80;;;11.18;;
3085;SDS011;52812;48.960;9.108;2023-03-01T05:34:31;27.05;;;12.55;;
3085;SDS011;52812;48.960;9.108;2023-03-01T05:36:59;32.42;;;12.73;;
3085;SDS011;52812;48.960;9.108;2023-03-01T05:39:25;24.87;;;11.90;;
3085;SDS011;52812;48.960;9.108;2023-03-01T05:41:53;27.45;;;12.82;;
3085;SDS011;52812;48.960;9.108;2023-03-01T05:44:19;25.45;;;12.43;;
3085;SDS011;52812;48.960;9.108;2023-03-01T05:46:45;24.90;;;11.90;;
3085;SDS011;52812;48.960;9.108;2023-03-01T05:49:11;25.42;;;12.13;;
3085;SDS011;52812;48.960;9.108;2023-03-01T05:51:38;32.78;;;14.30;;
3085;SDS011;52812;48.960;9.108;2023-03-01T05:54:08;25.42;;;13.43;;
3085;SDS011;52812;48.960;9.108;2023-03-01T05:56:34;28.42;;;12.30;;
3085;SDS011;52812;48.960;9.108;2023-03-01T05:59:01;29.10;;;12.93;;
3085;SDS011;52812;48.960;9.108;2023-03-01T06:01:29;28.58;;;13.55;;
3085;SDS011;52812;48.960;9.108;2023-03-01T06:03:55;28.33;;;12.90;;
3085;SDS011;52812;48.960;9.108;2023-03-01T06:06:21;29.47;;;12.27;;
3085;SDS011;52812;48.960;9.108;2023-03-01T06:08:47;24.13;;;12.02;;
3085;SDS011;52812;48.960;9.108;2023-03-01T06:11:13;27.97;;;12.37;;
3085;SDS011;52812;48.960;9.108;2023-03-01T06:13:39;32.00;;;13.33;;
3085;SDS011;52812;48.960;9.108;2023-03-01T06:16:06;32.33;;;12.38;;
3085;SDS011;52812;48.960;9.108;2023-03-01T06:18:32;29.05;;;12.93;;
3085;SDS011;52812;48.960;9.108;2023-03-01T06:20:57;32.27;;;13.53;;
3085;SDS011;52812;48.960;9.108;2023-03-01T06:23:23;25.03;;;11.77;;
3085;SDS011;52812;48.960;9.108;2023-03-01T06:25:49;29.85;;;13.20;;
3085;SDS011;52812;48.960;9.108;2023-03-01T06:28:15;28.83;;;13.50;;
3085;SDS011;52812;48.960;9.108;2023-03-01T06:30:41;26.00;;;11.37;;
3085;SDS011;52812;48.960;9.108;2023-03-01T06:33:06;26.93;;;11.63;;
3085;SDS011;52812;48.960;9.108;2023-03-01T06:35:32;26.73;;;12.10;;
3085;SDS011;52812;48.960;9.108;2023-03-01T06:37:58;32.43;;;12.97;;
3085;SDS011;52812;48.960;9.108;2023-03-01T06:40:25;31.35;;;13.35;;
3085;SDS011;52812;48.960;9.108;2023-03-01T06:42:51;28.70;;;12.90;;
3085;SDS011;52812;48.960;9.108;2023-03-01T06:45:18;25.93;;;11.80;;
3085;SDS011;52812;48.960;9.108;2023-03-01T06:47:44;26.98;;;12.35;;
3085;SDS011;52812;48.960;9.108;2023-03-01T06:50:10;27.20;;;12.50;;
3085;SDS011;52812;48.960;9.108;2023-03-01T06:52:36;31.42;;;12.57;;
3085;SDS011;52812;48.960;9.108;2023-03-01T06:55:03;25.88;;;13.00;;
3085;SDS011;52812;48.960;9.108;2023-03-01T06:57:29;31.77;;;12.75;;
3085;SDS011;52812;48.960;9.108;2023-03-01T06:59:55;28.30;;;12.10;;
3085;SDS011;52812;48.960;9.108;2023-03-01T07:02:21;27.00;;;12.00;;
3085;SDS011;52812;48.960;9.108;2023-03-01T07:04:48;29.37;;;13.17;;
3085;SDS011;52812;48.960;9.108;2023-03-01T07:07:17;32.00;;;13.85;;
3085;SDS011;52812;48.960;9.108;2023-03-01T07:09:43;25.93;;;12.27;;
3085;SDS011;52812;48.960;9.108;2023-03-01T07:12:09;31.58;;;13.00;;
3085;SDS011;52812;48.960;9.108;2023-03-01T07:14:35;29.47;;;12.77;;
3085;SDS011;52812;48.960;9.108;2023-03-01T07:17:01;25.57;;;11.70;;
3085;SDS011;52812;48.960;9.108;2023-03-01T07:19:26;24.57;;;12.80;;
3085;SDS011;52812;48.960;9.108;2023-03-01T07:21:52;30.70;;;13.00;;
3085;SDS011;52812;48.960;9.108;2023-03-01T07:24:17;30.20;;;13.97;;
3085;SDS011;52812;48.960;9.108;2023-03-01T07:26:43;23.33;;;11.60;;
3085;SDS011;52812;48.960;9.108;2023-03-01T07:29:09;30.03;;;12.93;;
3085;SDS011;52812;48.960;9.108;2023-03-01T07:31:35;28.73;;;13.33;;
3085;SDS011;52812;48.960;9.108;2023-03-01T07:34:01;29.37;;;13.80;;
3085;SDS011;52812;48.960;9.108;2023-03-01T07:36:28;26.87;;;13.47;;
3085;SDS011;52812;48.960;9.108;2023-03-01T07:38:53;23.70;;;13.20;;
3085;SDS011;52812;48.960;9.108;2023-03-01T07:41:20;27.87;;;13.13;;
3085;SDS011;52812;48.960;9.108;2023-03-01T07:43:46;28.40;;;14.10;;
3085;SDS011;52812;48.960;9.108;2023-03-01T07:46:12;27.87;;;13.93;;
3085;SDS011;52812;48.960;9.108;2023-03-01T07:48:37;32.60;;;14.00;;
3085;SDS011;52812;48.960;9.108;2023-03-01T07:51:04;32.13;;;13.73;;
3085;SDS011;52812;48.960;9.108;2023-03-01T07:53:31;28.80;;;14.20;;
3085;SDS011;52812;48.960;9.108;2023-03-01T07:56:07;25.33;;;13.00;;
3085;SDS011;52812;48.960;9.108;2023-03-01T07:58:38;28.60;;;13.60;;
3085;SDS011;52812;48.960;9.108;2023-03-01T08:01:05;28.30;;;13.57;;
3085;SDS011;52812;48.960;9.108;2023-03-01T08:03:32;28.63;;;13.17;;
3085;SDS011;52812;48.960;9.108;2023-03-01T08:05:59;24.33;;;13.07;;
3085;SDS011;52812;48.960;9.108;2023-03-01T08:08:25;29.47;;;13.30;;
3085;SDS011;52812;48.960;9.108;2023-03-01T08:10:51;24.67;;;13.10;;
3085;SDS011;52812;48.960;9.108;2023-03-01T08:13:17;24.40;;;12.37;;
3085;SDS011;52812;48.960;9.108;2023-03-01T08:15:47;27.53;;;13.53;;
3085;SDS011;52812;48.960;9.108;2023-03-01T08:18:13;23.33;;;12.70;;
3085;SDS011;52812;48.960;9.108;2023-03-01T08:20:39;28.80;;;13.23;;
3085;SDS011;52812;48.960;9.108;2023-03-01T08:23:05;28.27;;;13.40;;
3085;SDS011;52812;48.960;9.108;2023-03-01T08:25:30;28.00;;;13.20;;
3085;SDS011;52812;48.960;9.108;2023-03-01T08:27:58;31.47;;;14.20;;
3085;SDS011;52812;48.960;9.108;2023-03-01T08:30:25;25.30;;;12.57;;
3085;SDS011;52812;48.960;9.108;2023-03-01T08:32:51;26.50;;;12.83;;
3085;SDS011;52812;48.960;9.108;2023-03-01T08:35:17;30.90;;;13.50;;
3085;SDS011;52812;48.960;9.108;2023-03-01T08:37:42;27.43;;;13.33;;
3085;SDS011;52812;48.960;9.108;2023-03-01T08:40:08;32.40;;;13.43;;
3085;SDS011;52812;48.960;9.108;2023-03-01T08:42:35;31.23;;;13.10;;
3085;SDS011;52812;48.960;9.108;2023-03-01T08:45:02;26.27;;;12.10;;
3085;SDS011;52812;48.960;9.108;2023-03-01T08:47:28;29.80;;;12.90;;
3085;SDS011;52812;48.960;9.108;2023-03-01T08:49:54;26.40;;;13.50;;
3085;SDS011;52812;48.960;9.108;2023-03-01T08:52:20;27.47;;;13.17;;
3085;SDS011;52812;48.960;9.108;2023-03-01T08:54:47;26.80;;;13.17;;
3085;SDS011;52812;48.960;9.108;2023-03-01T08:57:13;31.43;;;13.47;;
3085;SDS011;52812;48.960;9.108;2023-03-01T08:59:39;27.40;;;13.17;;
3085;SDS011;52812;48.960;9.108;2023-03-01T09:02:06;32.23;;;13.37;;
3085;SDS011;52812;48.960;9.108;2023-03-01T09:04:37;29.67;;;13.33;;
3085;SDS011;52812;48.960;9.108;2023-03-01T09:07:03;30.10;;;13.63;;
3085;SDS011;52812;48.960;9.108;2023-03-01T09:09:29;26.83;;;13.87;;
3085;SDS011;52812;48.960;9.108;2023-03-01T09:11:55;27.10;;;13.27;;
3085;SDS011;52812;48.960;9.108;2023-03-01T09:14:20;27.40;;;13.43;;
3085;SDS011;52812;48.960;9.108;2023-03-01T09:16:46;28.10;;;14.30;;
3085;SDS011;52812;48.960;9.108;2023-03-01T09:19:12;29.87;;;14.40;;
3085;SDS011;52812;48.960;9.108;2023-03-01T09:21:38;29.93;;;13.90;;
3085;SDS011;52812;48.960;9.108;2023-03-01T09:24:05;29.10;;;13.10;;
3085;SDS011;52812;48.960;9.108;2023-03-01T09:26:31;26.30;;;13.73;;
3085;SDS011;52812;48.960;9.108;2023-03-01T09:28:57;26.17;;;13.23;;
3085;SDS011;52812;48.960;9.108;2023-03-01T09:31:23;27.40;;;13.07;;
3085;SDS011;52812;48.960;9.108;2023-03-01T09:33:50;27.73;;;13.43;;
3085;SDS011;52812;48.960;9.108;2023-03-01T09:36:18;27.00;;;13.80;;
3085;SDS011;52812;48.960;9.108;2023-03-01T09:38:46;27.17;;;12.87;;
3085;SDS011;52812;48.960;9.108;2023-03-01T09:44:13;28.33;;;12.67;;
3085;SDS011;52812;48.960;9.108;2023-03-01T09:46:55;29.70;;;13.70;;
3085;SDS011;52812;48.960;9.108;2023-03-01T09:49:23;23.73;;;12.40;;
3085;SDS011;52812;48.960;9.108;2023-03-01T09:55:04;26.27;;;13.33;;
3085;SDS011;52812;48.960;9.108;2023-03-01T09:57:43;28.67;;;12.43;;
3085;SDS011;52812;48.960;9.108;2023-03-01T10:03:10;31.50;;;13.43;;
3085;SDS011;52812;48.960;9.108;2023-03-01T10:05:47;25.17;;;13.60;;
3085;SDS011;52812;48.960;9.108;2023-03-01T10:08:28;28.03;;;13.00;;
3085;SDS011;52812;48.960;9.108;2023-03-01T10:11:01;28.30;;;13.73;;
3085;SDS011;52812;48.960;9.108;2023-03-01T10:13:33;24.83;;;13.63;;
3085;SDS011;52812;48.960;9.108;2023-03-01T10:16:19;26.87;;;12.97;;
3085;SDS011;52812;48.960;9.108;2023-03-01T10:18:52;31.03;;;13.80;;
3085;SDS011;52812;48.960;9.108;2023-03-01T10:21:21;25.50;;;12.80;;
3085;SDS011;52812;48.960;9.108;2023-03-01T10:23:49;26.17;;;12.17;;
3085;SDS011;52812;48.960;9.108;2023-03-01T10:26:36;24.27;;;12.70;;
3085;SDS011;52812;48.960;9.108;2023-03-01T10:29:13;31.03;;;13.50;;
3085;SDS011;52812;48.960;9.108;2023-03-01T10:34:12;24.37;;;12.57;;
3085;SDS011;52812;48.960;9.108;2023-03-01T10:36:40;27.93;;;13.10;;
3085;SDS011;52812;48.960;9.108;2023-03-01T10:39:12;23.73;;;11.90;;
3085;SDS011;52812;48.960;9.108;2023-03-01T10:41:58;26.17;;;12.70;;
3085;SDS011;52812;48.960;9.108;2023-03-01T10:47:17;27.30;;;13.40;;
3085;SDS011;52812;48.960;9.108;2023-03-01T10:52:19;28.40;;;14.23;;
3085;SDS011;52812;48.960;9.108;2023-03-01T10:54:53;27.53;;;13.07;;
3085;SDS011;52812;48.960;9.108;2023-03-01T10:57:43;24.37;;;12.13;;
3085;SDS011;52812;48.960;9.108;2023-03-01T11:00:19;22.30;;;12.13;;
3085;SDS011;52812;48.960;9.108;2023-03-01T11:03:08;24.03;;;12.77;;
3085;SDS011;52812;48.960;9.108;2023-03-01T11:05:37;23.87;;;12.03;;
3085;SDS011;52812;48.960;9.108;2023-03-01T11:08:26;23.13;;;12.07;;
3085;SDS011;52812;48.960;9.108;2023-03-01T11:16:34;28.57;;;13.80;;
3085;SDS011;52812;48.960;9.108;2023-03-01T11:21:41;26.10;;;12.83;;
3085;SDS011;52812;48.960;9.108;2023-03-01T11:24:13;25.83;;;12.63;;
3085;SDS011;52812;48.960;9.108;2023-03-01T11:26:41;24.60;;;13.30;;
3085;SDS011;52812;48.960;9.108;2023-03-01T11:29:25;27.03;;;12.07;;
3085;SDS011;52812;48.960;9.108;2023-03-01T11:31:56;25.87;;;12.50;;
3085;SDS011;52812;48.960;9.108;2023-03-01T11:34:31;26.13;;;12.97;;
3085;SDS011;52812;48.960;9.108;2023-03-01T11:37:07;21.30;;;11.20;;
3085;SDS011;52812;48.960;9.108;2023-03-01T11:39:59;23.33;;;11.87;;
3085;SDS011;52812;48.960;9.108;2023-03-01T11:45:22;26.00;;;12.73;;
3085;SDS011;52812;48.960;9.108;2023-03-01T11:50:44;26.33;;;13.20;;
3085;SDS011;52812;48.960;9.108;2023-03-01T12:02:02;24.37;;;12.17;;
3085;SDS011;52812;48.960;9.108;2023-03-01T12:05:14;24.03;;;12.20;;
3085;SDS011;52812;48.960;9.108;2023-03-01T12:16:30;25.00;;;12.53;;
3085;SDS011;52812;48.960;9.108;2023-03-01T12:22:09;18.87;;;12.10;;
3085;SDS011;52812;48.960;9.108;2023-03-01T12:25:05;26.30;;;12.90;;
3085;SDS011;52812;48.960;9.108;2023-03-01T12:30:39;25.33;;;13.23;;
3085;SDS011;52812;48.960;9.108;2023-03-01T12:39:12;24.00;;;13.13;;
3085;SDS011;52812;48.960;9.108;2023-03-01T12:44:33;26.57;;;13.10;;
3085;SDS011;52812;48.960;9.108;2023-03-01T12:49:51;26.53;;;13.23;;
3085;SDS011;52812;48.960;9.108;2023-03-01T12:52:35;28.93;;;13.33;;
3085;SDS011;52812;48.960;9.108;2023-03-01T12:58:01;23.17;;;12.77;;
3085;SDS011;52812;48.960;9.108;2023-03-01T13:08:54;23.97;;;13.53;;
3085;SDS011;52812;48.960;9.108;2023-03-01T13:11:57;26.43;;;12.83;;
3085;SDS011;52812;48.960;9.108;2023-03-01T13:16:48;25.10;;;12.83;;
3085;SDS011;52812;48.960;9.108;2023-03-01T13:19:19;28.50;;;13.90;;
3085;SDS011;52812;48.960;9.108;2023-03-01T13:21:57;26.87;;;12.67;;
3085;SDS011;52812;48.960;9.108;2023-03-01T13:24:33;24.10;;;12.93;;
3085;SDS011;52812;48.960;9.108;2023-03-01T13:29:51;23.77;;;12.03;;
3085;SDS011;52812;48.960;9.108;2023-03-01T13:32:28;27.20;;;13.87;;
3085;SDS011;52812;48.960;9.108;2023-03-01T13:35:08;23.80;;;13.43;;
3085;SDS011;52812;48.960;9.108;2023-03-01T13:37:51;25.30;;;12.70;;
3085;SDS011;52812;48.960;9.108;2023-03-01T13:42:46;25.77;;;12.50;;
3085;SDS011;52812;48.960;9.108;2023-03-01T13:45:18;21.90;;;11.93;;
3085;SDS011;52812;48.960;9.108;2023-03-01T13:47:47;25.07;;;12.43;;
3085;SDS011;52812;48.960;9.108;2023-03-01T13:50:24;26.27;;;13.30;;
3085;SDS011;52812;48.960;9.108;2023-03-01T13:53:03;23.40;;;12.67;;
3085;SDS011;52812;48.960;9.108;2023-03-01T13:58:22;28.03;;;13.43;;
3085;SDS011;52812;48.960;9.108;2023-03-01T14:00:57;24.63;;;13.43;;
3085;SDS011;52812;48.960;9.108;2023-03-01T14:03:24;23.77;;;12.77;;
3085;SDS011;52812;48.960;9.108;2023-03-01T14:08:34;20.20;;;11.37;;
3085;SDS011;52812;48.960;9.108;2023-03-01T14:11:06;24.17;;;12.73;;
3085;SDS011;52812;48.960;9.108;2023-03-01T14:16:38;22.00;;;13.33;;
3085;SDS011;52812;48.960;9.108;2023-03-01T14:19:16;20.47;;;11.17;;
3085;SDS011;52812;48.960;9.108;2023-03-01T14:21:46;21.70;;;12.60;;
3085;SDS011;52812;48.960;9.108;2023-03-01T14:24:20;28.07;;;13.97;;
3085;SDS011;52812;48.960;9.108;2023-03-01T14:26:47;23.30;;;12.60;;
3085;SDS011;52812;48.960;9.108;2023-03-01T14:32:20;24.87;;;12.27;;
3085;SDS011;52812;48.960;9.108;2023-03-01T14:34:49;28.43;;;13.17;;
3085;SDS011;52812;48.960;9.108;2023-03-01T14:37:25;26.00;;;12.63;;
3085;SDS011;52812;48.960;9.108;2023-03-01T14:39:56;27.90;;;12.83;;
3085;SDS011;52812;48.960;9.108;2023-03-01T14:42:24;21.80;;;11.80;;
3085;SDS011;52812;48.960;9.108;2023-03-01T14:44:53;23.37;;;12.60;;
3085;SDS011;52812;48.960;9.108;2023-03-01T14:47:28;24.93;;;12.60;;
3085;SDS011;52812;48.960;9.108;2023-03-01T14:49:58;22.87;;;12.80;;
3085;SDS011;52812;48.960;9.108;2023-03-01T14:52:37;22.23;;;12.47;;
3085;SDS011;52812;48.960;9.108;2023-03-01T14:55:15;24.23;;;11.97;;
3085;SDS011;52812;48.960;9.108;2023-03-01T14:57:52;24.00;;;12.67;;
3085;SDS011;52812;48.960;9.108;2023-03-01T15:00:19;24.67;;;12.77;;
3085;SDS011;52812;48.960;9.108;2023-03-01T15:02:48;26.77;;;12.23;;
3085;SDS011;52812;48.960;9.108;2023-03-01T15:05:18;22.13;;;12.00;;
3085;SDS011;52812;48.960;9.108;2023-03-01T15:08:00;27.13;;;12.70;;
3085;SDS011;52812;48.960;9.108;2023-03-01T15:10:28;22.97;;;12.43;;
3085;SDS011;52812;48.960;9.108;2023-03-01T15:12:56;22.70;;;11.97;;
3085;SDS011;52812;48.960;9.108;2023-03-01T15:15:35;26.43;;;11.37;;
3085;SDS011;52812;48.960;9.108;2023-03-01T15:18:13;31.37;;;12.80;;
3085;SDS011;52812;48.960;9.108;2023-03-01T15:20:42;27.70;;;12.90;;
3085;SDS011;52812;48.960;9.108;2023-03-01T15:23:19;24.60;;;12.20;;
3085;SDS011;52812;48.960;9.108;2023-03-01T15:25:48;23.20;;;12.30;;
3085;SDS011;52812;48.960;9.108;2023-03-01T15:28:21;28.20;;;12.50;;
3085;SDS011;52812;48.960;9.108;2023-03-01T15:30:54;22.87;;;12.37;;
3085;SDS011;52812;48.960;9.108;2023-03-01T15:35:55;22.13;;;11.13;;
3085;SDS011;52812;48.960;9.108;2023-03-01T15:41:29;26.07;;;12.20;;
3085;SDS011;52812;48.960;9.108;2023-03-01T15:44:00;23.90;;;11.73;;
3085;SDS011;52812;48.960;9.108;2023-03-01T15:46:39;21.10;;;11.83;;
3085;SDS011;52812;48.960;9.108;2023-03-01T15:49:29;20.13;;;11.13;;
3085;SDS011;52812;48.960;9.108;2023-03-01T15:52:05;24.20;;;11.70;;
3085;SDS011;52812;48.960;9.108;2023-03-01T15:54:38;22.50;;;11.80;;
3085;SDS011;52812;48.960;9.108;2023-03-01T15:57:08;20.57;;;11.93;;
3085;SDS011;52812;48.960;9.108;2023-03-01T15:59:38;21.50;;;10.90;;
3085;SDS011;52812;48.960;9.108;2023-03-01T16:02:08;20.87;;;11.43;;
3085;SDS011;52812;48.960;9.108;2023-03-01T16:04:40;24.20;;;11.80;;
3085;SDS011;52812;48.960;9.108;2023-03-01T16:07:05;22.33;;;11.80;;
3085;SDS011;52812;48.960;9.108;2023-03-01T16:09:31;19.53;;;11.37;;
3085;SDS011;52812;48.960;9.108;2023-03-01T16:11:57;22.47;;;12.07;;
3085;SDS011;52812;48.960;9.108;2023-03-01T16:14:22;21.10;;;11.23;;
3085;SDS011;52812;48.960;9.108;2023-03-01T16:16:48;21.80;;;12.13;;
3085;SDS011;52812;48.960;9.108;2023-03-01T16:19:14;25.43;;;11.60;;
3085;SDS011;52812;48.960;9.108;2023-03-01T16:21:39;21.97;;;11.43;;
3085;SDS011;52812;48.960;9.108;2023-03-01T16:24:07;22.87;;;12.00;;
3085;SDS011;52812;48.960;9.108;2023-03-01T16:26:33;20.10;;;11.67;;
3085;SDS011;52812;48.960;9.108;2023-03-01T16:28:58;20.87;;;11.10;;
3085;SDS011;52812;48.960;9.108;2023-03-01T16:31:24;23.17;;;12.03;;
3085;SDS011;52812;48.960;9.108;2023-03-01T16:33:54;21.37;;;11.43;;
3085;SDS011;52812;48.960;9.108;2023-03-01T16:36:21;24.67;;;12.07;;
3085;SDS011;52812;48.960;9.108;2023-03-01T16:38:51;21.87;;;11.10;;
3085;SDS011;52812;48.960;9.108;2023-03-01T16:41:18;24.43;;;11.23;;